Time;durP1;ratioP1;P1;durP2;ratioP2;P2;SDS_P1;SDS_P2;PMS_P1;PMS_P2;Temp;Humidity;BMP_temperature;BMP_pressure;BME280_temperature;BME280_humidity;BME280_pressure;Samples;Min_cycle;Max_cycle;Signal;HPM_P1;HPM_P2
2023/12/19 00:18:40;;;;;;;30.00;3.53;;;;;;;;;;5015043;28;20068;-63
2023/12/19 00:21:14;;;;;;;20.98;3.38;;;;;;;;;;5018460;28;20127;-63
2023/12/19 00:23:42;;;;;;;26.30;3.45;;;;;;;;;;5014840;28;20057;-63
2023/12/19 00:26:12;;;;;;;28.42;4.00;;;;;;;;;;5015121;28;20068;-62
2023/12/19 00:28:45;;;;;;;25.90;3.38;;;;;;;;;;5016064;28;20986;-63
2023/12/19 00:31:22;;;;;;;23.67;3.28;;;;;;;;;;5007532;28;20118;-63
2023/12/19 00:33:56;;;;;;;30.55;4.25;;;;;;;;;;5011099;28;20060;-63
2023/12/19 00:36:23;;;;;;;;;;;;;;;;;;5011865;28;20054;-64
2023/12/19 00:38:51;;;;;;;28.08;3.63;;;;;;;;;;5011325;28;20392;-58
2023/12/19 00:41:25;;;;;;;19.10;3.05;;;;;;;;;;5012197;28;20139;-61
2023/12/19 00:43:52;;;;;;;19.75;3.78;;;;;;;;;;5009830;28;20509;-70
2023/12/19 00:46:26;;;;;;;37.95;4.40;;;;;;;;;;5013348;28;20057;-70
2023/12/19 00:49:00;;;;;;;25.25;3.08;;;;;;;;;;5011723;28;20508;-70
2023/12/19 00:51:34;;;;;;;23.98;3.83;;;;;;;;;;4997899;28;20061;-70
2023/12/19 00:54:01;;;;;;;34.67;4.30;;;;;;;;;;5012142;28;20144;-70
2023/12/19 00:56:29;;;;;;;17.92;3.17;;;;;;;;;;5012114;28;20065;-70
2023/12/19 00:59:02;;;;;;;20.38;3.53;;;;;;;;;;5010150;28;20488;-63
2023/12/19 01:01:29;;;;;;;24.05;3.85;;;;;;;;;;5009096;28;20834;-62
2023/12/19 01:03:57;;;;;;;24.60;3.80;;;;;;;;;;5011061;28;20482;-63
2023/12/19 01:06:31;;;;;;;37.80;4.68;;;;;;;;;;5015721;28;21203;-63
2023/12/19 01:08:59;;;;;;;19.58;3.30;;;;;;;;;;5016264;28;20967;-63
2023/12/19 01:11:32;;;;;;;26.70;3.83;;;;;;;;;;5014156;28;20152;-56
2023/12/19 01:14:00;;;;;;;26.77;3.40;;;;;;;;;;5012378;28;20124;-54
2023/12/19 01:16:28;;;;;;;45.40;4.55;;;;;;;;;;5012440;28;20423;-56
2023/12/19 01:19:09;;;;;;;27.73;4.20;;;;;;;;;;5014519;28;20085;-56
2023/12/19 01:21:38;;;;;;;26.80;4.57;;;;;;;;;;5016663;28;20497;-58
2023/12/19 01:24:11;;;;;;;30.85;4.85;;;;;;;;;;5015044;28;20053;-55
2023/12/19 01:26:39;;;;;;;39.60;5.97;;;;;;;;;;4999207;28;20467;-59
2023/12/19 01:29:06;;;;;;;27.08;4.03;;;;;;;;;;5017618;28;20525;-59
2023/12/19 01:31:39;;;;;;;29.75;3.63;;;;;;;;;;5014348;28;20050;-59
2023/12/19 01:34:07;;;;;;;37.20;3.92;;;;;;;;;;5014221;28;20054;-60
2023/12/19 01:36:45;;;;;;;27.15;3.83;;;;;;;;;;5015538;28;20058;-61
2023/12/19 01:39:24;;;;;;;31.40;3.88;;;;;;;;;;5016395;28;20160;-60
2023/12/19 01:41:57;;;;;;;25.20;3.53;;;;;;;;;;5016370;28;20057;-59
2023/12/19 01:44:25;;;;;;;16.02;3.40;;;;;;;;;;5014330;28;20073;-58
2023/12/19 01:46:52;;;;;;;28.50;4.45;;;;;;;;;;5013723;28;20050;-58
2023/12/19 01:49:26;;;;;;;24.70;4.78;;;;;;;;;;5015285;28;20057;-59
2023/12/19 01:51:53;;;;;;;;;;;;;;;;;;5015617;28;20294;-59
2023/12/19 01:54:21;;;;;;;30.48;4.18;;;;;;;;;;5018297;28;19968;-70
2023/12/19 01:56:54;;;;;;;39.80;4.68;;;;;;;;;;5015718;28;20501;-70
2023/12/19 01:59:22;;;;;;;41.58;5.90;;;;;;;;;;5012628;28;20135;-71
2023/12/19 02:01:56;;;;;;;36.65;3.85;;;;;;;;;;5010562;28;20139;-70
2023/12/19 02:04:23;;;;;;;30.30;3.75;;;;;;;;;;5013029;28;20060;-62
2023/12/19 02:06:51;;;;;;;48.72;4.32;;;;;;;;;;5018495;28;20057;-62
2023/12/19 02:09:24;;;;;;;36.30;4.93;;;;;;;;;;5018465;28;20115;-70
2023/12/19 02:11:58;;;;;;;29.80;4.55;;;;;;;;;;5016850;28;20054;-70
2023/12/19 02:14:32;;;;;;;17.73;2.63;;;;;;;;;;5016655;28;20119;-70
2023/12/19 02:17:07;;;;;;;35.10;4.13;;;;;;;;;;5017991;28;20049;-70
2023/12/19 02:19:48;;;;;;;29.23;4.13;;;;;;;;;;5016945;28;20108;-70
2023/12/19 02:22:16;;;;;;;28.45;4.03;;;;;;;;;;5018403;28;20108;-60
2023/12/19 02:24:50;;;;;;;25.95;3.13;;;;;;;;;;5016007;28;20172;-61
2023/12/19 02:27:20;;;;;;;37.00;5.00;;;;;;;;;;5019759;28;21354;-60
2023/12/19 02:29:47;;;;;;;39.55;4.88;;;;;;;;;;5018508;28;20169;-60
2023/12/19 02:32:21;;;;;;;46.20;4.70;;;;;;;;;;5016633;28;20131;-53
2023/12/19 02:34:49;;;;;;;37.65;5.53;;;;;;;;;;5014321;28;20139;-61
2023/12/19 02:37:16;;;;;;;;;;;;;;;;;;5013524;28;20272;-59
2023/12/19 02:39:50;;;;;;;25.77;3.17;;;;;;;;;;5013590;28;20231;-58
2023/12/19 02:42:18;;;;;;;27.52;3.88;;;;;;;;;;5018089;28;20086;-59
2023/12/19 02:44:51;;;;;;;34.83;5.15;;;;;;;;;;5009905;28;20528;-58
2023/12/19 02:47:18;;;;;;;24.00;3.88;;;;;;;;;;5013050;28;20081;-59
2023/12/19 02:49:45;;;;;;;42.35;5.78;;;;;;;;;;5013537;28;20134;-59
2023/12/19 02:52:19;;;;;;;42.63;5.05;;;;;;;;;;5012083;28;20424;-63
2023/12/19 02:54:46;;;;;;;40.90;5.50;;;;;;;;;;5013478;28;20074;-63
2023/12/19 02:57:14;;;;;;;28.13;3.67;;;;;;;;;;5015941;28;20061;-62
2023/12/19 02:59:47;;;;;;;40.45;4.47;;;;;;;;;;5012087;28;20132;-63
2023/12/19 03:02:14;;;;;;;27.10;4.00;;;;;;;;;;5011779;28;20062;-60
2023/12/19 03:04:41;;;;;;;40.60;6.30;;;;;;;;;;5014602;28;20356;-60
2023/12/19 03:07:15;;;;;;;34.97;5.85;;;;;;;;;;5015205;28;20061;-60
2023/12/19 03:09:42;;;;;;;49.50;6.68;;;;;;;;;;5013007;28;20061;-61
2023/12/19 03:12:10;;;;;;;35.70;4.38;;;;;;;;;;5012521;28;20061;-61
2023/12/19 03:14:43;;;;;;;33.72;5.05;;;;;;;;;;5011960;28;20544;-60
2023/12/19 03:17:23;;;;;;;36.13;4.85;;;;;;;;;;5017407;28;20241;-61
2023/12/19 03:19:57;;;;;;;39.55;5.60;;;;;;;;;;5015283;28;20059;-59
2023/12/19 03:22:24;;;;;;;;;;;;;;;;;;5017110;28;20303;-59
2023/12/19 03:24:52;;;;;;;27.98;4.32;;;;;;;;;;5018579;28;20271;-58
2023/12/19 03:27:25;;;;;;;37.15;4.30;;;;;;;;;;5004297;28;20053;-59
2023/12/19 03:29:53;;;;;;;40.75;5.93;;;;;;;;;;5015857;28;20053;-63
2023/12/19 03:32:26;;;;;;;41.88;5.38;;;;;;;;;;5014734;28;20131;-60
2023/12/19 03:34:53;;;;;;;;;;;;;;;;;;5015707;28;20053;-51
2023/12/19 03:37:21;;;;;;;30.02;4.97;;;;;;;;;;5015415;28;19925;-52
2023/12/19 03:39:54;;;;;;;45.80;5.30;;;;;;;;;;5011437;28;20505;-52
2023/12/19 03:42:21;;;;;;;;;;;;;;;;;;5018045;28;20100;-53
2023/12/19 03:44:49;;;;;;;44.00;5.95;;;;;;;;;;5014893;28;20432;-54
2023/12/19 03:47:23;;;;;;;33.17;3.95;;;;;;;;;;5013242;28;20103;-52
2023/12/19 03:49:50;;;;;;;27.20;3.95;;;;;;;;;;5012298;28;20053;-59
2023/12/19 03:52:24;;;;;;;39.45;4.65;;;;;;;;;;5010726;28;20057;-59
2023/12/19 03:54:51;;;;;;;36.85;5.35;;;;;;;;;;5012001;28;20064;-59
2023/12/19 03:57:18;;;;;;;34.03;4.65;;;;;;;;;;5014325;28;20049;-59
2023/12/19 03:59:52;;;;;;;28.15;4.97;;;;;;;;;;5013607;28;20147;-60
2023/12/19 04:02:19;;;;;;;32.15;6.15;;;;;;;;;;5013384;28;20468;-60
2023/12/19 04:04:54;;;;;;;36.30;4.53;;;;;;;;;;5012226;28;20064;-60
2023/12/19 04:07:21;;;;;;;;;;;;;;;;;;5014225;28;20426;-61
2023/12/19 04:09:48;;;;;;;30.02;3.78;;;;;;;;;;5012558;28;20335;-60
2023/12/19 04:12:22;;;;;;;26.77;4.93;;;;;;;;;;5012529;28;20089;-59
2023/12/19 04:14:49;;;;;;;32.53;4.15;;;;;;;;;;4990030;28;20050;-60
2023/12/19 04:17:36;;;;;;;28.42;4.63;;;;;;;;;;5008171;28;20432;-59
2023/12/19 04:20:11;;;;;;;25.05;3.97;;;;;;;;;;5010148;28;20049;-59
2023/12/19 04:22:44;;;;;;;26.40;4.03;;;;;;;;;;5012890;28;20061;-59
2023/12/19 04:25:12;;;;;;;18.92;3.20;;;;;;;;;;5012032;28;20104;-59
2023/12/19 04:27:39;;;;;;;24.35;3.85;;;;;;;;;;5015849;28;20077;-52
2023/12/19 04:30:13;;;;;;;18.42;3.67;;;;;;;;;;5009129;28;20060;-55
2023/12/19 04:32:41;;;;;;;19.15;3.13;;;;;;;;;;5008923;28;20529;-56
2023/12/19 04:35:15;;;;;;;25.40;3.17;;;;;;;;;;5007884;28;20061;-55
2023/12/19 04:37:43;;;;;;;;;;;;;;;;;;5012478;28;20513;-56
2023/12/19 04:40:11;;;;;;;26.23;3.05;;;;;;;;;;5013309;28;19988;-54
2023/12/19 04:42:44;;;;;;;20.40;3.78;;;;;;;;;;5013458;28;20081;-55
2023/12/19 04:45:12;;;;;;;22.02;3.20;;;;;;;;;;5015342;28;20053;-59
2023/12/19 04:47:40;;;;;;;12.45;2.70;;;;;;;;;;5009995;28;20056;-59
2023/12/19 04:50:13;;;;;;;15.43;2.30;;;;;;;;;;5010334;28;20058;-59
2023/12/19 04:52:48;;;;;;;15.15;2.83;;;;;;;;;;5009529;28;20107;-59
2023/12/19 04:55:15;;;;;;;15.10;2.67;;;;;;;;;;5010911;28;20100;-59
2023/12/19 04:57:43;;;;;;;12.23;2.10;;;;;;;;;;5007027;28;20054;-51
2023/12/19 05:00:16;;;;;;;15.63;2.45;;;;;;;;;;5007856;28;20076;-59
2023/12/19 05:02:43;;;;;;;;;;;;;;;;;;5008335;28;20062;-59
2023/12/19 05:05:17;;;;;;;13.15;2.17;;;;;;;;;;5010511;28;19949;-59
2023/12/19 05:07:44;;;;;;;13.50;2.70;;;;;;;;;;5017368;28;20440;-59
2023/12/19 05:10:12;;;;;;;19.25;3.58;;;;;;;;;;5010438;28;20050;-59
2023/12/19 05:12:46;;;;;;;16.83;3.15;;;;;;;;;;5016149;28;20080;-59
2023/12/19 05:15:13;;;;;;;9.27;1.83;;;;;;;;;;5013954;28;20461;-62
2023/12/19 05:17:54;;;;;;;19.13;2.65;;;;;;;;;;5007782;28;20053;-62
2023/12/19 05:20:22;;;;;;;21.65;2.75;;;;;;;;;;5010759;28;20085;-62
2023/12/19 05:22:56;;;;;;;12.43;2.38;;;;;;;;;;5008737;28;20054;-62
2023/12/19 05:25:24;;;;;;;10.40;2.40;;;;;;;;;;5009098;28;20116;-52
2023/12/19 05:27:51;;;;;;;10.32;2.15;;;;;;;;;;5016221;28;20135;-61
2023/12/19 05:30:25;;;;;;;12.02;2.20;;;;;;;;;;5008755;28;20057;-63
2023/12/19 05:32:53;;;;;;;;;;;;;;;;;;5011307;28;20073;-62
2023/12/19 05:35:26;;;;;;;9.50;1.98;;;;;;;;;;5010152;28;19921;-63
2023/12/19 05:37:53;;;;;;;14.55;2.05;;;;;;;;;;5005931;28;20119;-62
2023/12/19 05:40:21;;;;;;;12.43;2.50;;;;;;;;;;5015369;28;20061;-63
2023/12/19 05:42:57;;;;;;;18.35;2.63;;;;;;;;;;5016276;28;20064;-59
2023/12/19 05:45:25;;;;;;;12.77;3.25;;;;;;;;;;5005774;28;20448;-59
2023/12/19 05:47:52;;;;;;;11.07;1.83;;;;;;;;;;5011172;28;20151;-60
2023/12/19 05:50:26;;;;;;;15.68;2.05;;;;;;;;;;5005872;28;20116;-59
2023/12/19 05:52:54;;;;;;;17.95;2.17;;;;;;;;;;4997695;28;20447;-62
2023/12/19 05:55:22;;;;;;;16.27;2.28;;;;;;;;;;4999966;28;20191;-60
2023/12/19 05:57:57;;;;;;;14.45;2.38;;;;;;;;;;5012256;28;20057;-60
2023/12/19 06:00:24;;;;;;;17.85;2.78;;;;;;;;;;5012623;28;20531;-59
2023/12/19 06:02:58;;;;;;;14.32;2.35;;;;;;;;;;5010165;28;20065;-60
2023/12/19 06:05:26;;;;;;;15.80;2.50;;;;;;;;;;5013110;28;20390;-61
2023/12/19 06:07:53;;;;;;;12.38;1.80;;;;;;;;;;5013339;28;20462;-59
2023/12/19 06:10:27;;;;;;;10.65;2.65;;;;;;;;;;5018151;28;20061;-68
2023/12/19 06:12:55;;;;;;;16.35;2.50;;;;;;;;;;4999555;28;20061;-69
2023/12/19 06:15:28;;;;;;;15.90;2.38;;;;;;;;;;5018243;28;20056;-69
2023/12/19 06:18:02;;;;;;;;;;;;;;;;;;5017276;28;20062;-69
2023/12/19 06:20:36;;;;;;;12.63;2.33;;;;;;;;;;5018050;28;19929;-58
2023/12/19 06:23:03;;;;;;;12.88;2.30;;;;;;;;;;5016465;28;20046;-51
2023/12/19 06:25:32;;;;;;;25.15;3.45;;;;;;;;;;5016879;28;20859;-53
2023/12/19 06:28:07;;;;;;;17.48;2.60;;;;;;;;;;5019504;28;20053;-51
2023/12/19 06:30:34;;;;;;;19.52;2.75;;;;;;;;;;5016650;28;20508;-50
2023/12/19 06:33:09;;;;;;;20.55;3.13;;;;;;;;;;5014899;28;20049;-52
2023/12/19 06:35:36;;;;;;;;;;;;;;;;;;5016716;28;20076;-54
2023/12/19 06:38:03;;;;;;;15.35;2.30;;;;;;;;;;5020054;28;20017;-53
2023/12/19 06:40:37;;;;;;;20.23;2.47;;;;;;;;;;5017766;28;20421;-58
2023/12/19 06:43:05;;;;;;;;;;;;;;;;;;5019935;28;20607;-58
2023/12/19 06:45:33;;;;;;;19.15;2.92;;;;;;;;;;5017572;28;19941;-58
2023/12/19 06:48:08;;;;;;;21.52;3.08;;;;;;;;;;5016694;28;21695;-57
2023/12/19 06:50:35;;;;;;;25.98;3.28;;;;;;;;;;5016581;28;20455;-59
2023/12/19 06:53:10;;;;;;;17.75;2.75;;;;;;;;;;5016967;28;20136;-52
2023/12/19 06:55:37;;;;;;;27.27;3.72;;;;;;;;;;5016957;28;20572;-53
2023/12/19 06:58:05;;;;;;;21.83;3.80;;;;;;;;;;5019961;28;20565;-51
2023/12/19 07:00:40;;;;;;;24.23;3.72;;;;;;;;;;5017019;28;20049;-53
2023/12/19 07:03:07;;;;;;;27.20;3.72;;;;;;;;;;5014146;28;20435;-56
2023/12/19 07:05:42;;;;;;;19.92;3.65;;;;;;;;;;5014819;28;20508;-53
2023/12/19 07:08:09;;;;;;;22.95;3.40;;;;;;;;;;5015222;28;20771;-56
2023/12/19 07:10:36;;;;;;;28.88;4.80;;;;;;;;;;5015230;28;20042;-58
2023/12/19 07:13:09;;;;;;;29.05;3.90;;;;;;;;;;5013664;28;20085;-57
2023/12/19 07:15:37;;;;;;;27.35;3.38;;;;;;;;;;4999763;28;20671;-58
2023/12/19 07:18:04;;;;;;;37.50;3.83;;;;;;;;;;5012966;28;20069;-63
2023/12/19 07:20:44;;;;;;;35.90;5.28;;;;;;;;;;5011414;28;20077;-60
2023/12/19 07:23:12;;;;;;;27.10;4.78;;;;;;;;;;5016260;28;20058;-60
2023/12/19 07:25:46;;;;;;;27.27;3.83;;;;;;;;;;5016817;28;20058;-60
2023/12/19 07:28:15;;;;;;;28.60;4.18;;;;;;;;;;5019321;28;20042;-60
2023/12/19 07:30:42;;;;;;;21.10;3.80;;;;;;;;;;5012744;28;20985;-60
2023/12/19 07:33:18;;;;;;;29.13;4.30;;;;;;;;;;5014864;28;20065;-60
2023/12/19 07:35:45;;;;;;;28.75;5.28;;;;;;;;;;5015776;28;20049;-60
2023/12/19 07:38:18;;;;;;;33.30;4.20;;;;;;;;;;5012457;28;20060;-60
2023/12/19 07:40:46;;;;;;;40.65;4.60;;;;;;;;;;5015338;28;20540;-60
2023/12/19 07:43:13;;;;;;;29.10;4.38;;;;;;;;;;5018173;28;20060;-60
2023/12/19 07:45:46;;;;;;;29.00;4.75;;;;;;;;;;5016845;28;20053;-63
2023/12/19 07:48:15;;;;;;;30.88;4.35;;;;;;;;;;5013027;28;20055;-62
2023/12/19 07:50:50;;;;;;;33.55;4.68;;;;;;;;;;5015259;28;20046;-59
2023/12/19 07:53:17;;;;;;;46.22;5.25;;;;;;;;;;5016384;28;20049;-58
2023/12/19 07:55:44;;;;;;;28.92;4.05;;;;;;;;;;5016790;28;20501;-59
2023/12/19 07:58:19;;;;;;;29.60;3.55;;;;;;;;;;5017388;28;20095;-59
2023/12/19 08:00:46;;;;;;;;;;;;;;;;;;5013950;28;20045;-58
2023/12/19 08:03:19;;;;;;;34.97;3.97;;;;;;;;;;5013004;28;20273;-56
2023/12/19 08:05:50;;;;;;;30.85;3.88;;;;;;;;;;5016244;28;20051;-70
2023/12/19 08:08:17;;;;;;;29.52;4.70;;;;;;;;;;5014505;28;20516;-70
2023/12/19 08:10:52;;;;;;;23.55;3.30;;;;;;;;;;5014659;28;20053;-69
2023/12/19 08:13:22;;;;;;;;;;;;;;;;;;5018220;28;20084;-69
2023/12/19 08:15:56;;;;;;;39.17;4.43;;;;;;;;;;5014066;28;20432;-58
2023/12/19 08:18:30;;;;;;;33.05;4.63;;;;;;;;;;5013133;28;20061;-69
2023/12/19 08:21:05;;;;;;;37.10;4.20;;;;;;;;;;5016215;28;20057;-69
2023/12/19 08:23:32;;;;;;;29.15;4.97;;;;;;;;;;5013814;28;21798;-70
2023/12/19 08:25:59;;;;;;;29.00;3.53;;;;;;;;;;5011479;28;20622;-69
2023/12/19 08:28:34;;;;;;;29.45;4.38;;;;;;;;;;5015694;28;20053;-69
2023/12/19 08:31:03;;;;;;;30.20;4.57;;;;;;;;;;5014303;28;20053;-69
2023/12/19 08:33:38;;;;;;;32.88;4.68;;;;;;;;;;5014457;28;20513;-62
2023/12/19 08:36:06;;;;;;;40.03;4.88;;;;;;;;;;5014950;28;20057;-63
2023/12/19 08:38:53;;;;;;;30.50;3.60;;;;;;;;;;5012594;28;20049;-62
2023/12/19 08:41:27;;;;;;;48.10;5.18;;;;;;;;;;5013092;28;20053;-63
2023/12/19 08:43:55;;;;;;;;;;;;;;;;;;5016591;28;20046;-62
2023/12/19 08:46:24;;;;;;;38.88;4.97;;;;;;;;;;5014758;28;20124;-63
2023/12/19 08:48:58;;;;;;;34.95;4.88;;;;;;;;;;5015187;28;20057;-63
2023/12/19 08:51:26;;;;;;;33.83;5.35;;;;;;;;;;5014481;28;20073;-63
2023/12/19 08:54:00;;;;;;;35.45;5.32;;;;;;;;;;5010435;28;20050;-63
2023/12/19 08:56:28;;;;;;;32.38;5.05;;;;;;;;;;5014159;28;20092;-62
2023/12/19 08:58:55;;;;;;;43.95;5.57;;;;;;;;;;5013963;28;20505;-62
2023/12/19 09:01:28;;;;;;;46.10;5.60;;;;;;;;;;5016071;28;20079;-59
2023/12/19 09:03:56;;;;;;;36.92;5.40;;;;;;;;;;5011213;28;20082;-59
2023/12/19 09:06:31;;;;;;;32.38;4.75;;;;;;;;;;5013429;28;20056;-59
2023/12/19 09:08:58;;;;;;;36.17;4.95;;;;;;;;;;5016570;28;20054;-59
2023/12/19 09:11:25;;;;;;;;;;;;;;;;;;5011835;28;20186;-49
2023/12/19 09:13:59;;;;;;;38.50;4.50;;;;;;;;;;5015161;28;19976;-70
2023/12/19 09:16:28;;;;;;;38.10;5.38;;;;;;;;;;5015334;28;20231;-55
2023/12/19 09:19:09;;;;;;;33.70;5.55;;;;;;;;;;5014285;28;20500;-55
2023/12/19 09:21:36;;;;;;;34.13;3.95;;;;;;;;;;5013491;28;20052;-56
2023/12/19 09:24:10;;;;;;;33.30;4.18;;;;;;;;;;5015202;28;20157;-55
2023/12/19 09:26:38;;;;;;;28.50;3.78;;;;;;;;;;5013264;28;20053;-52
2023/12/19 09:29:06;;;;;;;39.60;5.05;;;;;;;;;;5018029;28;20057;-59
2023/12/19 09:31:40;;;;;;;29.25;4.40;;;;;;;;;;5016265;28;20108;-59
2023/12/19 09:34:08;;;;;;;;;;;;;;;;;;5011411;28;20052;-59
2023/12/19 09:36:44;;;;;;;24.17;4.20;;;;;;;;;;5014023;28;19978;-58
2023/12/19 09:39:23;;;;;;;31.88;4.60;;;;;;;;;;5012651;28;20422;-61
2023/12/19 09:41:58;;;;;;;32.58;3.88;;;;;;;;;;5013979;28;20054;-62
2023/12/19 09:44:25;;;;;;;;;;;;;;;;;;5016597;28;20111;-69
2023/12/19 09:46:53;;;;;;;35.30;4.47;;;;;;;;;;5015288;28;20016;-69
2023/12/19 09:49:29;;;;;;;35.03;4.97;;;;;;;;;;5019759;28;20050;-70
2023/12/19 09:51:57;;;;;;;38.33;4.80;;;;;;;;;;5017363;28;20072;-69
2023/12/19 09:54:25;;;;;;;30.75;3.92;;;;;;;;;;5017134;28;20170;-69
2023/12/19 09:56:59;;;;;;;31.10;3.83;;;;;;;;;;5015469;28;20045;-69
2023/12/19 09:59:27;;;;;;;43.10;4.07;;;;;;;;;;5001996;28;20054;-63
2023/12/19 10:02:04;;;;;;;34.30;4.40;;;;;;;;;;5017620;28;20061;-64
2023/12/19 10:04:38;;;;;;;30.58;5.25;;;;;;;;;;5022509;28;20064;-63
2023/12/19 10:07:06;;;;;;;31.17;4.85;;;;;;;;;;5014496;28;20053;-62
2023/12/19 10:09:33;;;;;;;;;;;;;;;;;;5012239;28;20140;-60
2023/12/19 10:12:09;;;;;;;29.88;4.05;;;;;;;;;;5012529;28;21200;-63
2023/12/19 10:14:46;;;;;;;30.25;4.57;;;;;;;;;;5018821;28;20123;-62
2023/12/19 10:17:22;;;;;;;30.92;4.38;;;;;;;;;;5019703;28;20060;-62
2023/12/19 10:20:09;;;;;;;36.55;4.88;;;;;;;;;;5018217;28;20135;-63
2023/12/19 10:22:45;;;;;;;32.90;4.18;;;;;;;;;;5018925;28;20349;-63
2023/12/19 10:25:21;;;;;;;41.45;4.13;;;;;;;;;;5013610;28;20041;-62
2023/12/19 10:28:09;;;;;;;33.38;3.78;;;;;;;;;;5018274;28;20060;-60
2023/12/19 10:30:36;;;;;;;28.70;4.40;;;;;;;;;;5017250;28;20061;-60
2023/12/19 10:33:14;;;;;;;33.40;4.50;;;;;;;;;;5016581;28;20034;-60
2023/12/19 10:35:45;;;;;;;42.92;4.82;;;;;;;;;;5018391;28;20049;-60
2023/12/19 10:38:20;;;;;;;38.92;5.35;;;;;;;;;;5019843;28;20052;-49
2023/12/19 10:40:54;;;;;;;;;;;;;;;;;;5007349;28;20108;-63
2023/12/19 10:43:29;;;;;;;32.90;3.75;;;;;;;;;;5016969;28;19925;-62
2023/12/19 10:45:56;;;;;;;34.75;6.07;;;;;;;;;;5013501;28;20060;-63
2023/12/19 10:48:23;;;;;;;28.20;4.40;;;;;;;;;;5017219;28;20072;-63
2023/12/19 10:50:58;;;;;;;40.50;5.30;;;;;;;;;;5014883;28;20532;-63
2023/12/19 10:53:26;;;;;;;41.83;5.63;;;;;;;;;;5016293;28;20408;-63
2023/12/19 10:55:53;;;;;;;;;;;;;;;;;;5019844;28;20072;-63
2023/12/19 10:58:27;;;;;;;31.88;4.95;;;;;;;;;;5017274;28;20339;-63
2023/12/19 11:01:00;;;;;;;47.60;5.60;;;;;;;;;;5013804;28;20057;-63
2023/12/19 11:03:34;;;;;;;34.50;4.68;;;;;;;;;;5015070;28;20053;-63
2023/12/19 11:06:10;;;;;;;31.80;4.38;;;;;;;;;;5011115;28;20053;-63
2023/12/19 11:08:39;;;;;;;37.40;4.05;;;;;;;;;;5016214;28;20057;-60
2023/12/19 11:11:18;;;;;;;31.13;4.80;;;;;;;;;;5015881;28;20780;-61
2023/12/19 11:13:47;;;;;;;33.30;3.97;;;;;;;;;;5016636;28;20317;-60
2023/12/19 11:16:23;;;;;;;52.00;5.45;;;;;;;;;;5016513;28;20060;-59
2023/12/19 11:19:16;;;;;;;28.90;3.38;;;;;;;;;;5017283;28;20107;-60
2023/12/19 11:21:56;;;;;;;33.35;4.55;;;;;;;;;;5015495;28;20546;-59
2023/12/19 11:24:38;;;;;;;29.13;4.03;;;;;;;;;;5015246;28;20056;-63
2023/12/19 11:27:17;;;;;;;33.47;5.22;;;;;;;;;;5011485;28;20141;-62
2023/12/19 11:29:46;;;;;;;32.95;5.80;;;;;;;;;;5014004;28;20050;-62
2023/12/19 11:32:30;;;;;;;33.75;4.65;;;;;;;;;;5014321;28;20053;-62
2023/12/19 11:35:09;;;;;;;35.33;4.82;;;;;;;;;;5016589;28;20053;-69
2023/12/19 11:37:44;;;;;;;39.05;4.90;;;;;;;;;;5014800;28;20504;-55
2023/12/19 11:40:31;;;;;;;39.15;4.50;;;;;;;;;;5013497;28;20045;-56
2023/12/19 11:43:05;;;;;;;21.83;3.80;;;;;;;;;;5013078;28;20135;-53
2023/12/19 11:45:33;;;;;;;;;;;;;;;;;;5011473;28;20502;-55
2023/12/19 11:48:00;;;;;;;33.70;4.85;;;;;;;;;;5015340;28;19925;-52
2023/12/19 11:50:39;;;;;;;27.05;3.72;;;;;;;;;;5016385;28;20062;-56
2023/12/19 11:53:07;;;;;;;34.90;5.30;;;;;;;;;;5014964;28;20166;-64
2023/12/19 11:55:42;;;;;;;32.67;5.35;;;;;;;;;;5015885;28;20096;-63
2023/12/19 11:58:09;;;;;;;35.70;4.78;;;;;;;;;;5014165;28;20049;-62
2023/12/19 12:00:43;;;;;;;26.58;4.68;;;;;;;;;;5012732;28;20064;-63
2023/12/19 12:03:12;;;;;;;36.58;5.60;;;;;;;;;;5013593;28;20069;-59
2023/12/19 12:05:40;;;;;;;32.30;4.55;;;;;;;;;;5013285;28;20067;-59
2023/12/19 12:08:14;;;;;;;36.25;4.63;;;;;;;;;;5019019;28;20517;-60
2023/12/19 12:11:04;;;;;;;34.30;4.15;;;;;;;;;;5014177;28;20053;-60
2023/12/19 12:13:33;;;;;;;37.55;4.40;;;;;;;;;;5016539;28;20053;-61
2023/12/19 12:16:07;;;;;;;25.70;4.47;;;;;;;;;;5014614;28;20057;-60
2023/12/19 12:18:42;;;;;;;41.83;5.07;;;;;;;;;;5013872;28;20784;-60
2023/12/19 12:21:17;;;;;;;34.92;4.10;;;;;;;;;;5013308;28;20057;-54
2023/12/19 12:23:44;;;;;;;44.40;5.38;;;;;;;;;;5012913;28;20052;-51
2023/12/19 12:26:11;;;;;;;;;;;;;;;;;;5012742;28;20606;-48
2023/12/19 12:28:51;;;;;;;34.75;4.15;;;;;;;;;;5014305;28;20408;-49
2023/12/19 12:31:19;;;;;;;35.80;4.40;;;;;;;;;;5014611;28;20124;-50
2023/12/19 12:33:57;;;;;;;30.15;5.18;;;;;;;;;;5012424;28;20056;-57
2023/12/19 12:36:24;;;;;;;37.85;5.35;;;;;;;;;;5011248;28;20056;-59
2023/12/19 12:38:59;;;;;;;35.53;3.92;;;;;;;;;;5013651;28;20136;-58
2023/12/19 12:41:29;;;;;;;35.40;4.07;;;;;;;;;;5017697;28;20057;-59
2023/12/19 12:43:56;;;;;;;35.92;5.20;;;;;;;;;;5017823;28;20060;-59
2023/12/19 12:46:42;;;;;;;38.08;4.57;;;;;;;;;;5014363;28;20077;-59
2023/12/19 12:49:09;;;;;;;42.35;5.93;;;;;;;;;;5014322;28;20045;-59
2023/12/19 12:51:44;;;;;;;34.78;4.72;;;;;;;;;;5013698;28;20055;-59
2023/12/19 12:54:11;;;;;;;;;;;;;;;;;;5011638;28;20051;-59
2023/12/19 12:56:46;;;;;;;27.90;3.72;;;;;;;;;;5012630;28;19995;-60
2023/12/19 12:59:25;;;;;;;33.35;5.05;;;;;;;;;;5014807;28;20084;-62
2023/12/19 13:01:52;;;;;;;34.22;4.70;;;;;;;;;;5012696;28;20434;-57
2023/12/19 13:04:19;;;;;;;;;;;;;;;;;;5012189;28;20111;-58
2023/12/19 13:06:54;;;;;;;31.58;3.83;;;;;;;;;;5011959;28;20321;-59
2023/12/19 13:09:21;;;;;;;34.47;4.68;;;;;;;;;;5014126;28;20647;-59
2023/12/19 13:11:58;;;;;;;31.92;4.13;;;;;;;;;;5014727;28;20383;-59
2023/12/19 13:14:25;;;;;;;27.05;4.75;;;;;;;;;;5016309;28;20428;-59
2023/12/19 13:16:59;;;;;;;31.88;4.30;;;;;;;;;;5017774;28;20111;-59
2023/12/19 13:19:33;;;;;;;36.17;4.32;;;;;;;;;;5014194;28;20448;-60
2023/12/19 13:22:08;;;;;;;40.80;5.32;;;;;;;;;;5013367;28;20520;-60
2023/12/19 13:24:35;;;;;;;31.88;4.40;;;;;;;;;;5019482;28;20053;-60
2023/12/19 13:27:05;;;;;;;27.27;4.45;;;;;;;;;;5020527;28;20578;-59
2023/12/19 13:29:39;;;;;;;40.35;4.10;;;;;;;;;;5020722;28;20054;-55
2023/12/19 13:32:07;;;;;;;;;;;;;;;;;;5018895;28;20493;-63
2023/12/19 13:34:42;;;;;;;29.15;4.40;;;;;;;;;;5016488;28;19979;-63
2023/12/19 13:37:09;;;;;;;28.27;4.50;;;;;;;;;;5015163;28;20067;-62
2023/12/19 13:39:36;;;;;;;43.95;5.10;;;;;;;;;;5018170;28;20053;-63
2023/12/19 13:42:11;;;;;;;34.85;5.82;;;;;;;;;;5016432;28;20049;-63
2023/12/19 13:44:38;;;;;;;26.80;4.00;;;;;;;;;;5020330;28;20109;-63
2023/12/19 13:47:11;;;;;;;35.25;4.68;;;;;;;;;;5019055;28;20065;-60
2023/12/19 13:49:38;;;;;;;55.50;5.72;;;;;;;;;;5017996;28;20425;-60
2023/12/19 13:52:06;;;;;;;31.92;5.43;;;;;;;;;;5014566;28;20424;-60
2023/12/19 13:54:40;;;;;;;51.50;5.30;;;;;;;;;;5018475;28;20429;-60
2023/12/19 13:57:08;;;;;;;;;;;;;;;;;;5019161;28;20484;-54
2023/12/19 13:59:41;;;;;;;36.50;4.53;;;;;;;;;;5017943;28;20119;-62
2023/12/19 14:02:09;;;;;;;30.35;4.65;;;;;;;;;;5017776;28;20061;-63
2023/12/19 14:04:39;;;;;;;34.70;5.00;;;;;;;;;;5018660;28;20949;-63
2023/12/19 14:07:15;;;;;;;28.75;4.43;;;;;;;;;;5016912;28;20088;-62
2023/12/19 14:09:42;;;;;;;41.97;6.03;;;;;;;;;;5017201;28;21296;-62
2023/12/19 14:12:17;;;;;;;34.38;5.25;;;;;;;;;;5014534;28;20138;-63
2023/12/19 14:14:44;;;;;;;36.05;4.80;;;;;;;;;;5019093;28;21191;-62
2023/12/19 14:17:11;;;;;;;45.35;5.85;;;;;;;;;;5002760;28;20056;-62
2023/12/19 14:19:59;;;;;;;34.05;5.20;;;;;;;;;;5015604;28;20066;-62
2023/12/19 14:22:36;;;;;;;35.50;4.82;;;;;;;;;;5016090;28;20065;-63
2023/12/19 14:25:11;;;;;;;50.78;5.35;;;;;;;;;;5016690;28;20056;-48
2023/12/19 14:27:39;;;;;;;41.35;4.93;;;;;;;;;;5016125;28;20509;-63
2023/12/19 14:30:08;;;;;;;42.28;4.93;;;;;;;;;;5015018;28;20499;-63
2023/12/19 14:32:42;;;;;;;44.20;5.28;;;;;;;;;;5019181;28;20052;-62
2023/12/19 14:35:09;;;;;;;44.47;5.63;;;;;;;;;;5017080;28;20096;-63
2023/12/19 14:37:44;;;;;;;40.80;5.15;;;;;;;;;;5013036;28;20103;-63
2023/12/19 14:40:13;;;;;;;56.30;7.63;;;;;;;;;;5015819;28;20054;-62
2023/12/19 14:42:41;;;;;;;32.10;5.28;;;;;;;;;;5015663;28;21116;-54
2023/12/19 14:45:15;;;;;;;33.80;4.72;;;;;;;;;;5017187;28;20496;-53
2023/12/19 14:47:42;;;;;;;51.17;5.88;;;;;;;;;;5016298;28;20064;-55
2023/12/19 14:50:15;;;;;;;41.53;5.85;;;;;;;;;;5017161;28;20084;-54
2023/12/19 14:52:43;;;;;;;;;;;;;;;;;;5013065;28;20084;-62
2023/12/19 14:55:10;;;;;;;38.92;5.53;;;;;;;;;;4997487;28;19924;-62
2023/12/19 14:57:45;;;;;;;36.40;5.07;;;;;;;;;;5013577;28;20305;-69
2023/12/19 15:00:13;;;;;;;42.67;4.60;;;;;;;;;;5016793;28;20201;-69
2023/12/19 15:02:47;;;;;;;40.03;5.13;;;;;;;;;;5013185;28;20059;-68
2023/12/19 15:05:14;;;;;;;32.10;4.68;;;;;;;;;;5020069;28;20045;-69
2023/12/19 15:07:41;;;;;;;49.03;5.20;;;;;;;;;;5017063;28;20042;-69
2023/12/19 15:10:16;;;;;;;48.47;5.00;;;;;;;;;;5016494;28;20088;-68
2023/12/19 15:12:44;;;;;;;49.42;5.35;;;;;;;;;;5014780;28;20132;-59
2023/12/19 15:15:18;;;;;;;49.20;5.38;;;;;;;;;;5019294;28;20056;-60
2023/12/19 15:17:46;;;;;;;43.70;4.75;;;;;;;;;;5012981;28;20050;-60
2023/12/19 15:20:20;;;;;;;47.67;5.63;;;;;;;;;;5015412;28;20061;-59
2023/12/19 15:22:54;;;;;;;35.53;4.53;;;;;;;;;;5011066;28;20056;-63